首页
METAR-TAF:

METAR-TAF

机场 :

Earlton, 安大略省, 加拿大

纬度: 47-42N, 经度: 079-51W, 海拔: 243米

当前天气观测

该预报发布于15分钟前的12:00 UTC
风速18节,风向西北,有时为24节阵风
温度 -14°C
湿度 85%
气压 999 hPa
能見度: 1.2公里
小雪

METAR: CYXR 271200Z AUTO 32018G24KT 3/4SM -SN VV011 M14/M16 A2951 RMK SLP013

时间: 07:15 (12:15 UTC)

预报

该预报发布于18小时和34分钟前的17:41 UTC
预报有效从26日的 18点(UTC)到 27日的 01点(UTC)
风速8节,风向
能見度: 10公里
少量云层高于1500英尺
多云层高于14000英尺
短暂存在
从 26日的 18点(UTC)到 26日的 23点(UTC)
多云层高于1500英尺
多云层高于14000英尺
几率 30%
从 26日的 18点(UTC)到 26日的 23点(UTC)
能見度: 3.2公里
高吹雪
从 26日的 2300点(UTC)
风速10节,风向,有时为20节阵风
能見度: 10公里
多云层高于10000英尺

TAF: CYXR 261741Z 2618/2701 01008KT P6SM FEW015 BKN140 TEMPO 2618/2623 BKN015 BKN140 PROB30 2618/2623 2SM BLSN FM262300 01010G20KT P6SM BKN100 RMK FCST BASED ON AUTO OBS. NXT FCST WILL BE ISSUED AT 271245Z

超过4000个机场的气象观测和天气预报(METAR&TAF报告)。

可查询的气象台以黄色和红色小点在地图上表示。

将鼠标移到小点上方,可查看气象台名称。

然后点击查看天气观测和预报。

如需切换地图:点击带黑十字的绿色按钮放大地图;点击带横线的绿色按钮缩小地图;或者点击绿色箭头查看邻近地区的地图。


METAR-TAF: